sensor_id;sensor_type;location;lat;lon;timestamp;P1;durP1;ratioP1;P2;durP2;ratioP2
23266;SDS011;11802;53.160;8.214;2024-02-23T00:01:25;2.43;;;0.40;;
23266;SDS011;11802;53.160;8.214;2024-02-23T00:03:51;0.30;;;0.30;;
23266;SDS011;11802;53.160;8.214;2024-02-23T00:06:17;0.73;;;0.30;;
23266;SDS011;11802;53.160;8.214;2024-02-23T00:08:43;0.73;;;0.30;;
23266;SDS011;11802;53.160;8.214;2024-02-23T00:11:08;0.20;;;0.20;;
23266;SDS011;11802;53.160;8.214;2024-02-23T00:13:34;0.30;;;0.30;;
23266;SDS011;11802;53.160;8.214;2024-02-23T00:16:00;0.90;;;0.40;;
23266;SDS011;11802;53.160;8.214;2024-02-23T00:18:26;0.20;;;0.20;;
23266;SDS011;11802;53.160;8.214;2024-02-23T00:20:51;0.30;;;0.30;;
23266;SDS011;11802;53.160;8.214;2024-02-23T00:23:17;0.90;;;0.30;;
23266;SDS011;11802;53.160;8.214;2024-02-23T00:25:44;0.77;;;0.30;;
23266;SDS011;11802;53.160;8.214;2024-02-23T00:28:09;0.70;;;0.23;;
23266;SDS011;11802;53.160;8.214;2024-02-23T00:30:35;0.20;;;0.20;;
23266;SDS011;11802;53.160;8.214;2024-02-23T00:33:01;0.20;;;0.20;;
23266;SDS011;11802;53.160;8.214;2024-02-23T00:35:26;0.23;;;0.23;;
23266;SDS011;11802;53.160;8.214;2024-02-23T00:37:52;0.20;;;0.20;;
23266;SDS011;11802;53.160;8.214;2024-02-23T00:40:17;0.93;;;0.30;;
23266;SDS011;11802;53.160;8.214;2024-02-23T00:42:43;0.20;;;0.20;;
23266;SDS011;11802;53.160;8.214;2024-02-23T00:45:08;0.20;;;0.20;;
23266;SDS011;11802;53.160;8.214;2024-02-23T00:47:34;1.87;;;0.37;;
23266;SDS011;11802;53.160;8.214;2024-02-23T00:50:00;0.20;;;0.20;;
23266;SDS011;11802;53.160;8.214;2024-02-23T00:52:27;0.20;;;0.20;;
23266;SDS011;11802;53.160;8.214;2024-02-23T00:54:52;1.53;;;0.30;;
23266;SDS011;11802;53.160;8.214;2024-02-23T00:57:18;0.23;;;0.23;;
23266;SDS011;11802;53.160;8.214;2024-02-23T00:59:50;0.77;;;0.30;;
23266;SDS011;11802;53.160;8.214;2024-02-23T01:02:16;0.10;;;0.10;;
23266;SDS011;11802;53.160;8.214;2024-02-23T01:04:42;0.10;;;0.10;;
23266;SDS011;11802;53.160;8.214;2024-02-23T01:07:07;0.40;;;0.30;;
23266;SDS011;11802;53.160;8.214;2024-02-23T01:09:33;0.50;;;0.20;;
23266;SDS011;11802;53.160;8.214;2024-02-23T01:11:58;0.53;;;0.30;;
23266;SDS011;11802;53.160;8.214;2024-02-23T01:14:24;0.30;;;0.30;;
23266;SDS011;11802;53.160;8.214;2024-02-23T01:16:50;0.20;;;0.20;;
23266;SDS011;11802;53.160;8.214;2024-02-23T01:19:16;0.57;;;0.23;;
23266;SDS011;11802;53.160;8.214;2024-02-23T01:21:41;0.97;;;0.20;;
23266;SDS011;11802;53.160;8.214;2024-02-23T01:24:07;0.73;;;0.30;;
23266;SDS011;11802;53.160;8.214;2024-02-23T01:26:32;1.70;;;0.50;;
23266;SDS011;11802;53.160;8.214;2024-02-23T01:28:58;0.33;;;0.30;;
23266;SDS011;11802;53.160;8.214;2024-02-23T01:31:23;2.20;;;0.40;;
23266;SDS011;11802;53.160;8.214;2024-02-23T01:33:51;0.20;;;0.20;;
23266;SDS011;11802;53.160;8.214;2024-02-23T01:36:16;0.37;;;0.30;;
23266;SDS011;11802;53.160;8.214;2024-02-23T01:38:42;1.27;;;0.33;;
23266;SDS011;11802;53.160;8.214;2024-02-23T01:41:08;1.83;;;0.60;;
23266;SDS011;11802;53.160;8.214;2024-02-23T01:43:36;2.17;;;0.60;;
23266;SDS011;11802;53.160;8.214;2024-02-23T01:46:01;3.90;;;0.90;;
23266;SDS011;11802;53.160;8.214;2024-02-23T01:48:28;2.30;;;0.40;;
23266;SDS011;11802;53.160;8.214;2024-02-23T01:50:54;1.47;;;0.47;;
23266;SDS011;11802;53.160;8.214;2024-02-23T01:53:20;0.40;;;0.30;;
23266;SDS011;11802;53.160;8.214;2024-02-23T01:55:46;1.07;;;0.30;;
23266;SDS011;11802;53.160;8.214;2024-02-23T01:58:13;0.67;;;0.33;;
23266;SDS011;11802;53.160;8.214;2024-02-23T02:00:39;1.17;;;0.40;;
23266;SDS011;11802;53.160;8.214;2024-02-23T02:03:04;1.40;;;0.40;;
23266;SDS011;11802;53.160;8.214;2024-02-23T02:05:30;1.27;;;0.30;;
23266;SDS011;11802;53.160;8.214;2024-02-23T02:07:56;0.30;;;0.30;;
23266;SDS011;11802;53.160;8.214;2024-02-23T02:10:25;0.50;;;0.40;;
23266;SDS011;11802;53.160;8.214;2024-02-23T02:12:51;0.50;;;0.20;;
23266;SDS011;11802;53.160;8.214;2024-02-23T02:15:17;1.40;;;0.30;;
23266;SDS011;11802;53.160;8.214;2024-02-23T02:17:43;0.73;;;0.30;;
23266;SDS011;11802;53.160;8.214;2024-02-23T02:20:12;0.47;;;0.40;;
23266;SDS011;11802;53.160;8.214;2024-02-23T02:22:38;0.30;;;0.30;;
23266;SDS011;11802;53.160;8.214;2024-02-23T02:25:04;0.20;;;0.20;;
23266;SDS011;11802;53.160;8.214;2024-02-23T02:27:31;0.30;;;0.30;;
23266;SDS011;11802;53.160;8.214;2024-02-23T02:29:57;0.57;;;0.33;;
23266;SDS011;11802;53.160;8.214;2024-02-23T02:32:22;0.47;;;0.30;;
23266;SDS011;11802;53.160;8.214;2024-02-23T02:34:48;0.57;;;0.30;;
23266;SDS011;11802;53.160;8.214;2024-02-23T02:37:14;0.30;;;0.30;;
23266;SDS011;11802;53.160;8.214;2024-02-23T02:39:40;0.60;;;0.30;;
23266;SDS011;11802;53.160;8.214;2024-02-23T02:42:06;0.77;;;0.30;;
23266;SDS011;11802;53.160;8.214;2024-02-23T02:44:32;0.40;;;0.40;;
23266;SDS011;11802;53.160;8.214;2024-02-23T02:46:57;0.37;;;0.37;;
23266;SDS011;11802;53.160;8.214;2024-02-23T02:49:23;0.93;;;0.50;;
23266;SDS011;11802;53.160;8.214;2024-02-23T02:51:49;0.70;;;0.40;;
23266;SDS011;11802;53.160;8.214;2024-02-23T02:54:15;0.90;;;0.40;;
23266;SDS011;11802;53.160;8.214;2024-02-23T02:56:44;1.53;;;0.50;;
23266;SDS011;11802;53.160;8.214;2024-02-23T02:59:11;1.57;;;0.83;;
23266;SDS011;11802;53.160;8.214;2024-02-23T03:01:37;2.00;;;0.40;;
23266;SDS011;11802;53.160;8.214;2024-02-23T03:04:03;0.97;;;0.50;;
23266;SDS011;11802;53.160;8.214;2024-02-23T03:06:28;5.20;;;0.93;;
23266;SDS011;11802;53.160;8.214;2024-02-23T03:08:54;4.47;;;0.77;;
23266;SDS011;11802;53.160;8.214;2024-02-23T03:11:20;8.53;;;1.13;;
23266;SDS011;11802;53.160;8.214;2024-02-23T03:13:45;2.77;;;0.87;;
23266;SDS011;11802;53.160;8.214;2024-02-23T03:16:14;3.13;;;1.30;;
23266;SDS011;11802;53.160;8.214;2024-02-23T03:18:41;5.30;;;1.20;;
23266;SDS011;11802;53.160;8.214;2024-02-23T03:21:07;3.43;;;1.20;;
23266;SDS011;11802;53.160;8.214;2024-02-23T03:23:34;5.80;;;1.27;;
23266;SDS011;11802;53.160;8.214;2024-02-23T03:26:00;3.33;;;1.07;;
23266;SDS011;11802;53.160;8.214;2024-02-23T03:28:26;3.57;;;1.10;;
23266;SDS011;11802;53.160;8.214;2024-02-23T03:30:52;6.30;;;1.50;;
23266;SDS011;11802;53.160;8.214;2024-02-23T03:33:17;6.60;;;1.43;;
23266;SDS011;11802;53.160;8.214;2024-02-23T03:35:43;8.00;;;1.60;;
23266;SDS011;11802;53.160;8.214;2024-02-23T03:38:08;6.13;;;1.80;;
23266;SDS011;11802;53.160;8.214;2024-02-23T03:40:34;4.63;;;1.63;;
23266;SDS011;11802;53.160;8.214;2024-02-23T03:43:00;4.80;;;1.80;;
23266;SDS011;11802;53.160;8.214;2024-02-23T03:45:27;6.67;;;1.97;;
23266;SDS011;11802;53.160;8.214;2024-02-23T03:47:53;7.23;;;2.17;;
23266;SDS011;11802;53.160;8.214;2024-02-23T03:50:19;5.67;;;2.23;;
23266;SDS011;11802;53.160;8.214;2024-02-23T03:52:44;5.43;;;2.30;;
23266;SDS011;11802;53.160;8.214;2024-02-23T03:55:10;7.23;;;2.40;;
23266;SDS011;11802;53.160;8.214;2024-02-23T03:57:36;9.17;;;2.60;;
23266;SDS011;11802;53.160;8.214;2024-02-23T04:00:02;6.60;;;2.60;;
23266;SDS011;11802;53.160;8.214;2024-02-23T04:02:27;8.40;;;2.60;;
23266;SDS011;11802;53.160;8.214;2024-02-23T04:04:54;5.40;;;2.50;;
23266;SDS011;11802;53.160;8.214;2024-02-23T04:07:20;9.17;;;2.93;;
23266;SDS011;11802;53.160;8.214;2024-02-23T04:09:46;5.17;;;2.37;;
23266;SDS011;11802;53.160;8.214;2024-02-23T04:12:17;10.90;;;2.17;;
23266;SDS011;11802;53.160;8.214;2024-02-23T04:14:46;5.70;;;2.10;;
23266;SDS011;11802;53.160;8.214;2024-02-23T04:17:12;4.10;;;2.03;;
23266;SDS011;11802;53.160;8.214;2024-02-23T04:19:37;4.83;;;1.60;;
23266;SDS011;11802;53.160;8.214;2024-02-23T04:22:06;2.10;;;1.00;;
23266;SDS011;11802;53.160;8.214;2024-02-23T04:24:37;2.30;;;0.83;;
23266;SDS011;11802;53.160;8.214;2024-02-23T04:27:04;2.13;;;0.90;;
23266;SDS011;11802;53.160;8.214;2024-02-23T04:29:30;3.07;;;0.80;;
23266;SDS011;11802;53.160;8.214;2024-02-23T04:31:57;1.73;;;0.80;;
23266;SDS011;11802;53.160;8.214;2024-02-23T04:34:23;3.47;;;1.10;;
23266;SDS011;11802;53.160;8.214;2024-02-23T04:36:48;2.40;;;0.80;;
23266;SDS011;11802;53.160;8.214;2024-02-23T04:39:14;1.37;;;0.77;;
23266;SDS011;11802;53.160;8.214;2024-02-23T04:41:39;2.13;;;0.83;;
23266;SDS011;11802;53.160;8.214;2024-02-23T04:44:05;2.30;;;1.00;;
23266;SDS011;11802;53.160;8.214;2024-02-23T04:46:31;2.53;;;0.80;;
23266;SDS011;11802;53.160;8.214;2024-02-23T04:48:56;3.53;;;1.10;;
23266;SDS011;11802;53.160;8.214;2024-02-23T04:51:22;3.10;;;1.03;;
23266;SDS011;11802;53.160;8.214;2024-02-23T04:53:48;3.50;;;0.90;;
23266;SDS011;11802;53.160;8.214;2024-02-23T04:56:14;3.67;;;1.00;;
23266;SDS011;11802;53.160;8.214;2024-02-23T04:58:40;4.83;;;1.50;;
23266;SDS011;11802;53.160;8.214;2024-02-23T05:01:07;1.87;;;1.00;;
23266;SDS011;11802;53.160;8.214;2024-02-23T05:03:33;4.50;;;1.87;;
23266;SDS011;11802;53.160;8.214;2024-02-23T05:05:59;5.43;;;1.33;;
23266;SDS011;11802;53.160;8.214;2024-02-23T05:08:24;2.97;;;1.53;;
23266;SDS011;11802;53.160;8.214;2024-02-23T05:10:51;4.47;;;1.60;;
23266;SDS011;11802;53.160;8.214;2024-02-23T05:13:17;2.47;;;1.70;;
23266;SDS011;11802;53.160;8.214;2024-02-23T05:15:42;3.30;;;1.50;;
23266;SDS011;11802;53.160;8.214;2024-02-23T05:18:08;5.73;;;2.17;;
23266;SDS011;11802;53.160;8.214;2024-02-23T05:20:33;4.70;;;1.83;;
23266;SDS011;11802;53.160;8.214;2024-02-23T05:22:59;6.23;;;2.43;;
23266;SDS011;11802;53.160;8.214;2024-02-23T05:25:25;5.70;;;2.23;;
23266;SDS011;11802;53.160;8.214;2024-02-23T05:27:51;5.23;;;2.87;;
23266;SDS011;11802;53.160;8.214;2024-02-23T05:30:17;7.13;;;2.67;;
23266;SDS011;11802;53.160;8.214;2024-02-23T05:32:43;6.40;;;2.90;;
23266;SDS011;11802;53.160;8.214;2024-02-23T05:35:08;4.87;;;3.10;;
23266;SDS011;11802;53.160;8.214;2024-02-23T05:37:34;5.53;;;3.10;;
23266;SDS011;11802;53.160;8.214;2024-02-23T05:40:01;10.93;;;3.60;;
23266;SDS011;11802;53.160;8.214;2024-02-23T05:42:29;7.40;;;3.27;;
23266;SDS011;11802;53.160;8.214;2024-02-23T05:44:54;9.00;;;3.67;;
23266;SDS011;11802;53.160;8.214;2024-02-23T05:47:20;4.23;;;3.00;;
23266;SDS011;11802;53.160;8.214;2024-02-23T05:49:46;6.37;;;3.10;;
23266;SDS011;11802;53.160;8.214;2024-02-23T05:52:12;5.40;;;3.70;;
23266;SDS011;11802;53.160;8.214;2024-02-23T05:54:37;8.13;;;3.63;;
23266;SDS011;11802;53.160;8.214;2024-02-23T05:57:03;10.20;;;3.80;;
23266;SDS011;11802;53.160;8.214;2024-02-23T05:59:29;7.07;;;3.33;;
23266;SDS011;11802;53.160;8.214;2024-02-23T06:01:55;9.00;;;3.40;;
23266;SDS011;11802;53.160;8.214;2024-02-23T06:04:23;6.77;;;3.30;;
23266;SDS011;11802;53.160;8.214;2024-02-23T06:06:49;7.10;;;3.60;;
23266;SDS011;11802;53.160;8.214;2024-02-23T06:09:15;7.60;;;3.90;;
23266;SDS011;11802;53.160;8.214;2024-02-23T06:11:41;7.87;;;3.30;;
23266;SDS011;11802;53.160;8.214;2024-02-23T06:14:07;10.47;;;3.70;;
23266;SDS011;11802;53.160;8.214;2024-02-23T06:16:33;5.87;;;3.17;;
23266;SDS011;11802;53.160;8.214;2024-02-23T06:18:58;7.43;;;3.43;;
23266;SDS011;11802;53.160;8.214;2024-02-23T06:21:24;5.97;;;3.50;;
23266;SDS011;11802;53.160;8.214;2024-02-23T06:23:50;8.23;;;3.40;;
23266;SDS011;11802;53.160;8.214;2024-02-23T06:26:15;5.77;;;3.33;;
23266;SDS011;11802;53.160;8.214;2024-02-23T06:28:41;7.67;;;3.40;;
23266;SDS011;11802;53.160;8.214;2024-02-23T06:31:07;9.80;;;3.67;;
23266;SDS011;11802;53.160;8.214;2024-02-23T06:33:34;13.57;;;3.67;;
23266;SDS011;11802;53.160;8.214;2024-02-23T06:36:00;11.57;;;4.10;;
23266;SDS011;11802;53.160;8.214;2024-02-23T06:38:26;11.33;;;3.80;;
23266;SDS011;11802;53.160;8.214;2024-02-23T06:40:52;8.90;;;3.10;;
23266;SDS011;11802;53.160;8.214;2024-02-23T06:43:18;6.73;;;3.80;;
23266;SDS011;11802;53.160;8.214;2024-02-23T06:45:44;8.57;;;3.43;;
23266;SDS011;11802;53.160;8.214;2024-02-23T06:48:09;9.03;;;3.63;;
23266;SDS011;11802;53.160;8.214;2024-02-23T06:50:35;14.23;;;3.93;;
23266;SDS011;11802;53.160;8.214;2024-02-23T06:53:01;10.80;;;3.40;;
23266;SDS011;11802;53.160;8.214;2024-02-23T06:55:27;8.53;;;2.87;;
23266;SDS011;11802;53.160;8.214;2024-02-23T06:57:53;10.37;;;3.20;;
23266;SDS011;11802;53.160;8.214;2024-02-23T07:06:59;11.33;;;2.67;;
23266;SDS011;11802;53.160;8.214;2024-02-23T07:09:31;9.03;;;2.90;;
23266;SDS011;11802;53.160;8.214;2024-02-23T07:11:57;7.93;;;2.40;;
23266;SDS011;11802;53.160;8.214;2024-02-23T07:14:22;8.90;;;2.60;;
23266;SDS011;11802;53.160;8.214;2024-02-23T07:16:48;10.53;;;2.57;;
23266;SDS011;11802;53.160;8.214;2024-02-23T07:19:13;9.30;;;2.67;;
23266;SDS011;11802;53.160;8.214;2024-02-23T07:21:39;7.13;;;2.53;;
23266;SDS011;11802;53.160;8.214;2024-02-23T07:24:05;7.20;;;2.30;;
23266;SDS011;11802;53.160;8.214;2024-02-23T07:26:30;5.77;;;2.23;;
23266;SDS011;11802;53.160;8.214;2024-02-23T07:28:56;10.07;;;2.23;;
23266;SDS011;11802;53.160;8.214;2024-02-23T07:31:22;7.77;;;2.63;;
23266;SDS011;11802;53.160;8.214;2024-02-23T07:33:48;5.30;;;2.40;;
23266;SDS011;11802;53.160;8.214;2024-02-23T07:36:14;6.83;;;2.20;;
23266;SDS011;11802;53.160;8.214;2024-02-23T07:38:40;7.87;;;2.33;;
23266;SDS011;11802;53.160;8.214;2024-02-23T07:41:05;8.03;;;2.77;;
23266;SDS011;11802;53.160;8.214;2024-02-23T07:43:31;6.67;;;1.93;;
23266;SDS011;11802;53.160;8.214;2024-02-23T07:45:56;7.03;;;2.30;;
23266;SDS011;11802;53.160;8.214;2024-02-23T07:48:22;6.63;;;1.93;;
23266;SDS011;11802;53.160;8.214;2024-02-23T07:50:47;6.67;;;1.80;;
23266;SDS011;11802;53.160;8.214;2024-02-23T07:53:13;9.60;;;2.30;;
23266;SDS011;11802;53.160;8.214;2024-02-23T07:55:38;7.07;;;1.90;;
23266;SDS011;11802;53.160;8.214;2024-02-23T07:58:04;4.43;;;1.67;;
23266;SDS011;11802;53.160;8.214;2024-02-23T08:00:30;4.73;;;1.70;;
23266;SDS011;11802;53.160;8.214;2024-02-23T08:02:55;7.77;;;1.47;;
23266;SDS011;11802;53.160;8.214;2024-02-23T08:05:26;7.27;;;2.00;;
23266;SDS011;11802;53.160;8.214;2024-02-23T08:07:52;5.73;;;1.60;;
23266;SDS011;11802;53.160;8.214;2024-02-23T08:10:17;9.35;;;1.52;;
23266;SDS011;11802;53.160;8.214;2024-02-23T08:12:43;9.70;;;2.08;;
23266;SDS011;11802;53.160;8.214;2024-02-23T08:15:08;6.60;;;2.00;;
23266;SDS011;11802;53.160;8.214;2024-02-23T08:17:34;6.28;;;1.90;;
23266;SDS011;11802;53.160;8.214;2024-02-23T08:20:00;9.35;;;2.00;;
23266;SDS011;11802;53.160;8.214;2024-02-23T08:22:26;8.23;;;1.90;;
23266;SDS011;11802;53.160;8.214;2024-02-23T08:24:51;6.78;;;2.33;;
23266;SDS011;11802;53.160;8.214;2024-02-23T08:27:17;3.87;;;1.23;;
23266;SDS011;11802;53.160;8.214;2024-02-23T08:29:45;9.48;;;1.88;;
23266;SDS011;11802;53.160;8.214;2024-02-23T08:32:24;7.00;;;1.63;;
23266;SDS011;11802;53.160;8.214;2024-02-23T08:34:53;6.55;;;1.67;;
23266;SDS011;11802;53.160;8.214;2024-02-23T08:37:24;8.77;;;2.60;;
23266;SDS011;11802;53.160;8.214;2024-02-23T08:39:50;4.72;;;1.50;;
23266;SDS011;11802;53.160;8.214;2024-02-23T08:42:16;6.07;;;1.70;;
23266;SDS011;11802;53.160;8.214;2024-02-23T08:44:41;7.70;;;1.60;;
23266;SDS011;11802;53.160;8.214;2024-02-23T08:47:07;6.17;;;2.27;;
23266;SDS011;11802;53.160;8.214;2024-02-23T08:49:33;8.10;;;1.70;;
23266;SDS011;11802;53.160;8.214;2024-02-23T08:51:59;4.63;;;1.50;;
23266;SDS011;11802;53.160;8.214;2024-02-23T08:54:24;5.95;;;1.52;;
23266;SDS011;11802;53.160;8.214;2024-02-23T08:56:50;3.95;;;1.35;;
23266;SDS011;11802;53.160;8.214;2024-02-23T08:59:16;8.05;;;1.58;;
23266;SDS011;11802;53.160;8.214;2024-02-23T09:01:41;5.07;;;1.40;;
23266;SDS011;11802;53.160;8.214;2024-02-23T09:04:09;7.03;;;1.25;;
23266;SDS011;11802;53.160;8.214;2024-02-23T09:06:34;5.80;;;1.80;;
23266;SDS011;11802;53.160;8.214;2024-02-23T09:09:00;6.83;;;1.40;;
23266;SDS011;11802;53.160;8.214;2024-02-23T09:11:26;5.43;;;1.23;;
23266;SDS011;11802;53.160;8.214;2024-02-23T09:13:51;5.30;;;1.23;;
23266;SDS011;11802;53.160;8.214;2024-02-23T09:16:17;6.93;;;1.67;;
23266;SDS011;11802;53.160;8.214;2024-02-23T09:18:43;5.23;;;1.13;;
23266;SDS011;11802;53.160;8.214;2024-02-23T09:21:09;6.17;;;1.17;;
23266;SDS011;11802;53.160;8.214;2024-02-23T09:23:35;5.17;;;1.27;;
23266;SDS011;11802;53.160;8.214;2024-02-23T09:26:00;4.73;;;1.60;;
23266;SDS011;11802;53.160;8.214;2024-02-23T09:28:26;5.30;;;1.33;;
23266;SDS011;11802;53.160;8.214;2024-02-23T09:30:51;3.83;;;1.13;;
23266;SDS011;11802;53.160;8.214;2024-02-23T09:33:17;5.83;;;1.30;;
23266;SDS011;11802;53.160;8.214;2024-02-23T09:35:43;5.57;;;1.20;;
23266;SDS011;11802;53.160;8.214;2024-02-23T09:38:08;4.83;;;1.83;;
23266;SDS011;11802;53.160;8.214;2024-02-23T09:40:34;4.50;;;1.17;;
23266;SDS011;11802;53.160;8.214;2024-02-23T09:43:02;3.90;;;1.13;;
23266;SDS011;11802;53.160;8.214;2024-02-23T09:45:31;5.47;;;1.20;;
23266;SDS011;11802;53.160;8.214;2024-02-23T09:47:57;7.20;;;1.40;;
23266;SDS011;11802;53.160;8.214;2024-02-23T09:50:23;6.00;;;1.40;;
23266;SDS011;11802;53.160;8.214;2024-02-23T09:52:49;5.63;;;1.00;;
23266;SDS011;11802;53.160;8.214;2024-02-23T09:55:18;5.87;;;1.53;;
23266;SDS011;11802;53.160;8.214;2024-02-23T09:57:47;7.37;;;1.40;;
23266;SDS011;11802;53.160;8.214;2024-02-23T10:00:15;6.30;;;1.40;;
23266;SDS011;11802;53.160;8.214;2024-02-23T10:02:42;6.53;;;1.60;;
23266;SDS011;11802;53.160;8.214;2024-02-23T10:05:11;7.07;;;1.30;;
23266;SDS011;11802;53.160;8.214;2024-02-23T10:07:37;5.20;;;1.00;;
23266;SDS011;11802;53.160;8.214;2024-02-23T10:10:06;6.13;;;1.20;;
23266;SDS011;11802;53.160;8.214;2024-02-23T10:12:33;4.27;;;1.20;;
23266;SDS011;11802;53.160;8.214;2024-02-23T10:15:00;4.43;;;1.20;;
23266;SDS011;11802;53.160;8.214;2024-02-23T10:17:28;5.83;;;1.10;;
23266;SDS011;11802;53.160;8.214;2024-02-23T10:19:55;4.27;;;1.17;;
23266;SDS011;11802;53.160;8.214;2024-02-23T10:22:30;6.07;;;1.30;;
23266;SDS011;11802;53.160;8.214;2024-02-23T10:24:56;4.10;;;1.23;;
23266;SDS011;11802;53.160;8.214;2024-02-23T10:27:22;4.47;;;1.23;;
23266;SDS011;11802;53.160;8.214;2024-02-23T10:29:51;5.87;;;1.50;;
23266;SDS011;11802;53.160;8.214;2024-02-23T10:32:17;6.97;;;1.30;;
23266;SDS011;11802;53.160;8.214;2024-02-23T10:34:44;5.73;;;1.03;;
23266;SDS011;11802;53.160;8.214;2024-02-23T10:37:13;7.83;;;1.00;;
23266;SDS011;11802;53.160;8.214;2024-02-23T10:39:39;7.40;;;1.43;;
23266;SDS011;11802;53.160;8.214;2024-02-23T10:42:05;4.53;;;1.17;;
23266;SDS011;11802;53.160;8.214;2024-02-23T10:44:35;7.30;;;1.17;;
23266;SDS011;11802;53.160;8.214;2024-02-23T10:47:02;5.57;;;1.07;;
23266;SDS011;11802;53.160;8.214;2024-02-23T10:49:29;3.63;;;0.70;;
23266;SDS011;11802;53.160;8.214;2024-02-23T10:51:55;4.20;;;1.10;;
23266;SDS011;11802;53.160;8.214;2024-02-23T10:54:21;3.93;;;1.00;;
23266;SDS011;11802;53.160;8.214;2024-02-23T10:56:48;5.13;;;0.90;;
23266;SDS011;11802;53.160;8.214;2024-02-23T10:59:15;5.03;;;1.20;;
23266;SDS011;11802;53.160;8.214;2024-02-23T11:01:44;3.03;;;0.90;;
23266;SDS011;11802;53.160;8.214;2024-02-23T11:04:12;4.20;;;1.00;;
23266;SDS011;11802;53.160;8.214;2024-02-23T11:06:38;3.20;;;0.70;;
23266;SDS011;11802;53.160;8.214;2024-02-23T11:09:05;4.30;;;0.90;;
23266;SDS011;11802;53.160;8.214;2024-02-23T11:11:34;3.60;;;1.30;;
23266;SDS011;11802;53.160;8.214;2024-02-23T11:14:02;3.87;;;1.00;;
23266;SDS011;11802;53.160;8.214;2024-02-23T11:16:32;3.83;;;1.53;;
23266;SDS011;11802;53.160;8.214;2024-02-23T11:19:03;5.43;;;1.33;;
23266;SDS011;11802;53.160;8.214;2024-02-23T11:21:33;5.63;;;1.27;;
23266;SDS011;11802;53.160;8.214;2024-02-23T11:24:02;4.30;;;1.07;;
23266;SDS011;11802;53.160;8.214;2024-02-23T11:26:28;7.43;;;1.40;;
23266;SDS011;11802;53.160;8.214;2024-02-23T11:28:54;3.80;;;1.00;;
23266;SDS011;11802;53.160;8.214;2024-02-23T11:31:20;5.03;;;1.40;;
23266;SDS011;11802;53.160;8.214;2024-02-23T11:33:53;4.77;;;1.50;;
23266;SDS011;11802;53.160;8.214;2024-02-23T11:36:23;5.03;;;1.40;;
23266;SDS011;11802;53.160;8.214;2024-02-23T11:38:53;7.77;;;1.60;;
23266;SDS011;11802;53.160;8.214;2024-02-23T11:41:22;4.90;;;1.57;;
23266;SDS011;11802;53.160;8.214;2024-02-23T11:43:48;6.33;;;1.40;;
23266;SDS011;11802;53.160;8.214;2024-02-23T11:46:15;5.20;;;1.53;;
23266;SDS011;11802;53.160;8.214;2024-02-23T11:48:41;8.00;;;1.80;;
23266;SDS011;11802;53.160;8.214;2024-02-23T11:51:08;3.53;;;1.20;;
23266;SDS011;11802;53.160;8.214;2024-02-23T11:53:36;5.10;;;1.67;;
23266;SDS011;11802;53.160;8.214;2024-02-23T11:56:03;4.17;;;1.30;;
23266;SDS011;11802;53.160;8.214;2024-02-23T11:58:29;6.30;;;1.70;;
23266;SDS011;11802;53.160;8.214;2024-02-23T12:00:55;6.37;;;1.53;;
23266;SDS011;11802;53.160;8.214;2024-02-23T12:03:21;5.17;;;1.70;;
23266;SDS011;11802;53.160;8.214;2024-02-23T12:05:49;5.50;;;1.30;;
23266;SDS011;11802;53.160;8.214;2024-02-23T12:08:15;6.10;;;1.90;;
23266;SDS011;11802;53.160;8.214;2024-02-23T12:10:42;3.77;;;1.47;;
23266;SDS011;11802;53.160;8.214;2024-02-23T12:13:08;5.80;;;2.13;;
23266;SDS011;11802;53.160;8.214;2024-02-23T12:15:33;6.23;;;1.50;;
23266;SDS011;11802;53.160;8.214;2024-02-23T12:17:59;5.60;;;1.90;;
23266;SDS011;11802;53.160;8.214;2024-02-23T12:20:25;7.07;;;1.87;;
23266;SDS011;11802;53.160;8.214;2024-02-23T12:22:51;6.90;;;1.80;;
23266;SDS011;11802;53.160;8.214;2024-02-23T12:25:20;5.53;;;1.50;;
23266;SDS011;11802;53.160;8.214;2024-02-23T12:27:46;5.17;;;1.47;;
23266;SDS011;11802;53.160;8.214;2024-02-23T12:30:15;4.60;;;1.57;;
23266;SDS011;11802;53.160;8.214;2024-02-23T12:32:42;5.67;;;1.40;;
23266;SDS011;11802;53.160;8.214;2024-02-23T12:35:10;5.63;;;1.70;;
23266;SDS011;11802;53.160;8.214;2024-02-23T12:37:36;6.73;;;1.80;;
23266;SDS011;11802;53.160;8.214;2024-02-23T12:40:02;4.23;;;1.47;;
23266;SDS011;11802;53.160;8.214;2024-02-23T12:42:28;3.33;;;1.53;;
23266;SDS011;11802;53.160;8.214;2024-02-23T12:44:53;4.30;;;1.90;;
23266;SDS011;11802;53.160;8.214;2024-02-23T12:47:19;4.20;;;1.30;;
23266;SDS011;11802;53.160;8.214;2024-02-23T12:49:45;4.10;;;1.27;;
23266;SDS011;11802;53.160;8.214;2024-02-23T12:52:11;4.70;;;1.40;;
23266;SDS011;11802;53.160;8.214;2024-02-23T12:54:37;5.83;;;1.50;;
23266;SDS011;11802;53.160;8.214;2024-02-23T12:57:03;4.13;;;1.43;;
23266;SDS011;11802;53.160;8.214;2024-02-23T12:59:28;3.10;;;1.20;;
23266;SDS011;11802;53.160;8.214;2024-02-23T13:01:54;5.33;;;1.30;;
23266;SDS011;11802;53.160;8.214;2024-02-23T13:04:19;3.60;;;1.10;;
23266;SDS011;11802;53.160;8.214;2024-02-23T13:06:45;4.03;;;1.13;;
23266;SDS011;11802;53.160;8.214;2024-02-23T13:09:12;4.03;;;1.20;;
23266;SDS011;11802;53.160;8.214;2024-02-23T13:11:39;3.40;;;1.30;;
23266;SDS011;11802;53.160;8.214;2024-02-23T13:14:05;4.80;;;1.40;;
23266;SDS011;11802;53.160;8.214;2024-02-23T13:16:31;3.77;;;1.37;;
23266;SDS011;11802;53.160;8.214;2024-02-23T13:18:56;4.70;;;1.37;;
23266;SDS011;11802;53.160;8.214;2024-02-23T13:21:22;6.20;;;1.73;;
23266;SDS011;11802;53.160;8.214;2024-02-23T13:23:49;3.00;;;1.03;;
23266;SDS011;11802;53.160;8.214;2024-02-23T13:26:14;5.37;;;1.57;;
23266;SDS011;11802;53.160;8.214;2024-02-23T13:28:43;5.60;;;1.67;;
23266;SDS011;11802;53.160;8.214;2024-02-23T13:31:09;7.57;;;1.50;;
23266;SDS011;11802;53.160;8.214;2024-02-23T13:33:35;2.60;;;1.40;;
23266;SDS011;11802;53.160;8.214;2024-02-23T13:36:01;5.63;;;1.73;;
23266;SDS011;11802;53.160;8.214;2024-02-23T13:38:26;4.67;;;1.60;;
23266;SDS011;11802;53.160;8.214;2024-02-23T13:40:52;6.33;;;1.87;;
23266;SDS011;11802;53.160;8.214;2024-02-23T13:43:18;4.93;;;1.53;;
23266;SDS011;11802;53.160;8.214;2024-02-23T13:45:50;3.40;;;1.50;;
23266;SDS011;11802;53.160;8.214;2024-02-23T13:48:17;4.03;;;1.63;;
23266;SDS011;11802;53.160;8.214;2024-02-23T13:50:44;3.63;;;1.60;;
23266;SDS011;11802;53.160;8.214;2024-02-23T13:53:11;3.83;;;1.30;;
23266;SDS011;11802;53.160;8.214;2024-02-23T13:55:37;4.37;;;1.47;;
23266;SDS011;11802;53.160;8.214;2024-02-23T13:58:03;4.03;;;1.50;;
23266;SDS011;11802;53.160;8.214;2024-02-23T14:00:29;4.90;;;1.90;;
23266;SDS011;11802;53.160;8.214;2024-02-23T14:02:55;7.60;;;1.70;;
23266;SDS011;11802;53.160;8.214;2024-02-23T14:05:20;4.33;;;1.30;;
23266;SDS011;11802;53.160;8.214;2024-02-23T14:07:47;4.27;;;1.40;;
23266;SDS011;11802;53.160;8.214;2024-02-23T14:10:12;4.97;;;1.53;;
23266;SDS011;11802;53.160;8.214;2024-02-23T14:12:38;6.60;;;2.20;;
23266;SDS011;11802;53.160;8.214;2024-02-23T14:15:05;6.10;;;1.77;;
23266;SDS011;11802;53.160;8.214;2024-02-23T14:17:31;4.00;;;1.50;;
23266;SDS011;11802;53.160;8.214;2024-02-23T14:19:57;3.33;;;1.57;;
23266;SDS011;11802;53.160;8.214;2024-02-23T14:22:22;6.00;;;1.80;;
23266;SDS011;11802;53.160;8.214;2024-02-23T14:24:48;5.13;;;1.80;;
23266;SDS011;11802;53.160;8.214;2024-02-23T14:27:13;5.03;;;1.70;;
23266;SDS011;11802;53.160;8.214;2024-02-23T14:29:39;3.87;;;1.87;;
23266;SDS011;11802;53.160;8.214;2024-02-23T14:32:05;9.03;;;1.97;;
23266;SDS011;11802;53.160;8.214;2024-02-23T14:34:30;3.53;;;1.40;;
23266;SDS011;11802;53.160;8.214;2024-02-23T14:36:58;2.53;;;1.33;;
23266;SDS011;11802;53.160;8.214;2024-02-23T14:39:24;3.80;;;1.67;;
23266;SDS011;11802;53.160;8.214;2024-02-23T14:41:49;6.20;;;2.07;;
23266;SDS011;11802;53.160;8.214;2024-02-23T14:44:15;4.30;;;1.37;;
23266;SDS011;11802;53.160;8.214;2024-02-23T14:46:41;6.17;;;1.87;;
23266;SDS011;11802;53.160;8.214;2024-02-23T14:49:06;4.10;;;1.60;;